Time;durP1;ratioP1;P1;durP2;ratioP2;P2;SDS_P1;SDS_P2;PMS_P1;PMS_P2;Temp;Humidity;BMP_temperature;BMP_pressure;BME280_temperature;BME280_humidity;BME280_pressure;Samples;Min_cycle;Max_cycle;Signal;HPM_P1;HPM_P2
2023/01/06 00:01:06;;;;;;;3.80;1.50;;;;;;;2.16;100.00;99737.61;104593;1294;23031;-29
2023/01/06 00:03:31;;;;;;;9.60;1.00;;;;;;;2.16;100.00;99740.95;104513;1290;24295;-29
2023/01/06 00:05:59;;;;;;;6.00;1.00;;;;;;;2.15;100.00;99742.48;104681;1292;23039;-34
2023/01/06 00:08:24;;;;;;;2.20;0.70;;;;;;;2.12;100.00;99748.52;104905;1294;22556;-33
2023/01/06 00:10:50;;;;;;;7.80;1.30;;;;;;;2.14;100.00;99746.09;104712;1304;23044;-30
2023/01/06 00:13:16;;;;;;;6.30;1.40;;;;;;;2.14;100.00;99753.96;104702;1294;23168;-30
2023/01/06 00:15:41;;;;;;;3.40;0.70;;;;;;;2.17;100.00;99753.58;104565;1294;23626;-30
2023/01/06 00:18:07;;;;;;;1.40;0.70;;;;;;;2.19;100.00;99755.52;104658;1291;22568;-33
2023/01/06 00:20:33;;;;;;;1.50;0.50;;;;;;;2.19;100.00;99757.98;104662;1294;22579;-29
2023/01/06 00:22:59;;;;;;;3.70;1.00;;;;;;;2.20;100.00;99767.41;104613;1294;24424;-30
2023/01/06 00:25:25;;;;;;;2.10;0.80;;;;;;;2.20;100.00;99765.45;104584;1304;24312;-30
2023/01/06 00:27:50;;;;;;;2.40;1.10;;;;;;;2.21;100.00;99773.91;104771;1293;22633;-29
2023/01/06 00:30:16;;;;;;;5.80;1.50;;;;;;;2.24;100.00;99771.31;104695;1294;23035;-33
2023/01/06 00:32:42;;;;;;;2.20;0.50;;;;;;;2.25;100.00;99778.84;104800;1292;22642;-34
2023/01/06 00:35:08;;;;;;;5.50;0.80;;;;;;;2.30;100.00;99777.34;104701;1293;23040;-30
2023/01/06 00:37:34;;;;;;;3.70;0.70;;;;;;;2.34;100.00;99786.50;104449;1303;24318;-33
2023/01/06 00:39:59;;;;;;;4.50;1.40;;;;;;;2.33;100.00;99787.87;104706;1303;23179;-34
2023/01/06 00:42:25;;;;;;;1.80;1.00;;;;;;;2.37;100.00;99785.37;104713;1294;22666;-34
2023/01/06 00:44:51;;;;;;;4.40;0.90;;;;;;;2.39;100.00;99785.90;104571;1293;23168;-30
2023/01/06 00:47:17;;;;;;;12.40;1.10;;;;;;;2.42;100.00;99787.77;104582;1303;23262;-34
2023/01/06 00:49:43;;;;;;;2.40;0.70;;;;;;;2.45;100.00;99791.94;104665;1294;24375;-32
2023/01/06 00:52:09;;;;;;;6.90;1.30;;;;;;;2.42;100.00;99793.59;104474;1303;24768;-30
2023/01/06 00:54:36;;;;;;;2.30;1.00;;;;;;;2.41;100.00;99797.41;104648;1294;23276;-33
2023/01/06 00:57:02;;;;;;;6.30;0.90;;;;;;;2.41;100.00;99803.91;104756;1294;22651;-34
2023/01/06 00:59:27;;;;;;;6.40;1.10;;;;;;;2.44;100.00;99810.79;104628;1303;22574;-34
2023/01/06 01:01:54;;;;;;;2.70;1.30;;;;;;;2.43;100.00;99819.02;104659;1294;22715;-30
2023/01/06 01:04:20;;;;;;;1.80;0.90;;;;;;;2.42;100.00;99819.90;104725;1303;22688;-34
2023/01/06 01:06:46;;;;;;;1.20;0.90;;;;;;;2.45;100.00;99822.70;104773;1291;22898;-34
2023/01/06 01:09:14;;;;;;;1.30;0.50;;;;;;;2.46;100.00;99828.63;104624;1303;23158;-30
2023/01/06 01:14:10;;;;;;;4.20;1.50;;;;;;;2.44;100.00;99832.36;104660;1303;25635;-30
2023/01/06 01:16:36;;;;;;;7.40;1.10;;;;;;;2.44;100.00;99837.09;104723;1294;23159;-28
2023/01/06 01:19:01;;;;;;;5.50;0.90;;;;;;;2.43;100.00;99842.98;104682;1294;22931;-28
2023/01/06 01:21:27;;;;;;;5.20;0.80;;;;;;;2.46;100.00;99845.93;104678;1294;24444;-28
2023/01/06 01:23:53;;;;;;;2.20;0.60;;;;;;;2.46;100.00;99849.09;104742;1294;24318;-34
2023/01/06 01:26:19;;;;;;;3.30;0.80;;;;;;;2.43;100.00;99853.12;104690;1291;22928;-33
2023/01/06 01:28:44;;;;;;;2.50;0.90;;;;;;;2.47;100.00;99855.90;104560;1293;24508;-34
2023/01/06 01:31:12;;;;;;;3.60;0.80;;;;;;;2.44;100.00;99857.22;104620;1294;22803;-34
2023/01/06 01:33:38;;;;;;;4.20;0.80;;;;;;;2.49;100.00;99855.35;104644;1303;22582;-33
2023/01/06 01:36:12;;;;;;;0.70;0.20;;;;;;;2.49;100.00;99859.45;104748;1288;25454;-30
2023/01/06 01:38:40;;;;;;;10.80;1.00;;;;;;;2.44;100.00;99861.33;104483;1295;22944;-34
2023/01/06 01:41:06;;;;;;;3.50;1.40;;;;;;;2.41;100.00;99865.14;104706;1293;22649;-29
2023/01/06 01:43:45;;;;;;;1.00;0.60;;;;;;;2.46;100.00;99868.86;104842;1303;22676;-30
2023/01/06 01:46:11;;;;;;;1.40;0.60;;;;;;;2.47;100.00;99869.21;104630;1303;24334;-34
2023/01/06 01:48:37;;;;;;;10.00;1.90;;;;;;;2.49;100.00;99873.07;104633;1303;22790;-33
2023/01/06 01:51:04;;;;;;;3.30;2.00;;;;;;;2.47;100.00;99870.24;104596;1303;24315;-30
2023/01/06 01:53:37;;;;;;;2.00;1.00;;;;;;;2.39;100.00;99874.80;104873;1297;25675;-34
2023/01/06 01:56:05;;;;;;;8.80;1.70;;;;;;;2.40;100.00;99882.58;104721;1289;25460;-30
2023/01/06 01:58:55;;;;;;;2.70;1.50;;;;;;;2.36;100.00;99885.50;104812;1294;23323;-30
2023/01/06 02:01:20;;;;;;;2.10;1.00;;;;;;;2.38;100.00;99884.48;104636;1294;22742;-34
2023/01/06 02:03:47;;;;;;;2.40;1.60;;;;;;;2.38;100.00;99886.02;104632;1292;24312;-33
2023/01/06 02:06:15;;;;;;;2.20;1.40;;;;;;;2.38;100.00;99887.46;104550;1294;23458;-34
2023/01/06 02:08:49;;;;;;;3.90;1.60;;;;;;;2.35;100.00;99886.66;104694;1281;24293;-34
2023/01/06 02:11:14;;;;;;;3.40;2.00;;;;;;;2.38;100.00;99890.77;104600;1303;23041;-34
2023/01/06 02:13:41;;;;;;;5.20;1.40;;;;;;;2.36;100.00;99892.17;104757;1288;22555;-29
2023/01/06 02:16:29;;;;;;;4.40;2.10;;;;;;;2.32;100.00;99891.44;104720;1304;23170;-30
2023/01/06 02:19:18;;;;;;;4.60;2.40;;;;;;;2.34;100.00;99894.98;104420;1303;22671;-34
2023/01/06 02:22:03;;;;;;;7.20;2.40;;;;;;;2.37;100.00;99901.54;104471;1296;22831;-30
2023/01/06 02:24:54;;;;;;;3.30;2.00;;;;;;;2.38;100.00;99901.98;104769;1280;22686;-31
2023/01/06 02:27:39;;;;;;;6.60;2.60;;;;;;;2.36;100.00;99903.34;104556;1294;24312;-31
2023/01/06 02:30:25;;;;;;;9.80;1.70;;;;;;;2.42;100.00;99903.38;104650;1303;23031;-34
2023/01/06 02:33:12;;;;;;;2.60;2.10;;;;;;;2.34;100.00;99902.77;104849;1293;24302;-35
2023/01/06 02:35:58;;;;;;;3.40;2.10;;;;;;;2.34;100.00;99904.36;104678;1293;22659;-30
2023/01/06 02:38:47;;;;;;;2.70;1.50;;;;;;;2.37;100.00;99906.39;104577;1303;22803;-34
2023/01/06 02:41:22;;;;;;;2.00;1.30;;;;;;;2.40;100.00;99901.20;104564;1304;22606;-34
2023/01/06 02:44:01;;;;;;;2.50;1.50;;;;;;;2.37;100.00;99897.92;104665;1303;23014;-35
2023/01/06 02:46:51;;;;;;;2.20;1.50;;;;;;;2.30;100.00;99901.38;104708;1292;24198;-33
2023/01/06 02:49:44;;;;;;;4.20;1.40;;;;;;;2.35;100.00;99904.81;104760;1304;22609;-34
2023/01/06 02:52:29;;;;;;;3.10;2.10;;;;;;;2.34;100.00;99906.30;104589;1293;22566;-30
2023/01/06 02:55:08;;;;;;;4.40;1.70;;;;;;;2.39;100.00;99906.80;104431;1303;24331;-30
2023/01/06 02:57:49;;;;;;;2.10;1.50;;;;;;;2.38;100.00;99906.55;104755;1294;23166;-33
2023/01/06 03:00:29;;;;;;;1.60;1.00;;;;;;;2.32;100.00;99911.95;104756;1291;24309;-30
2023/01/06 03:03:12;;;;;;;4.80;2.60;;;;;;;2.35;100.00;99915.27;104665;1304;22636;-30
2023/01/06 03:05:38;;;;;;;10.10;2.10;;;;;;;2.32;100.00;99918.00;104788;1290;22579;-30
2023/01/06 03:08:07;;;;;;;6.80;2.30;;;;;;;2.32;100.00;99921.64;104595;1304;23176;-30
2023/01/06 03:10:33;;;;;;;3.50;1.90;;;;;;;2.33;100.00;99925.00;104348;1304;22795;-33
2023/01/06 03:13:05;;;;;;;7.80;1.40;;;;;;;2.29;100.00;99926.73;104649;1304;23023;-33
2023/01/06 03:15:31;;;;;;;6.00;2.00;;;;;;;2.27;100.00;99924.45;104671;1303;23182;-30
2023/01/06 03:17:56;;;;;;;5.00;2.00;;;;;;;2.22;100.00;99926.98;104621;1293;22629;-32
2023/01/06 03:20:22;;;;;;;2.60;1.80;;;;;;;2.23;100.00;99931.30;104524;1304;22876;-32
2023/01/06 03:22:48;;;;;;;6.80;2.30;;;;;;;2.20;100.00;99926.98;104516;1291;22830;-32
2023/01/06 03:25:14;;;;;;;5.10;1.90;;;;;;;2.23;100.00;99916.29;104575;1304;24530;-32
2023/01/06 03:27:40;;;;;;;5.40;2.80;;;;;;;2.20;100.00;99917.92;104583;1292;22997;-32
2023/01/06 03:30:08;;;;;;;9.50;1.80;;;;;;;2.24;100.00;99911.39;104815;1294;22675;-29
2023/01/06 03:32:54;;;;;;;6.30;1.20;;;;;;;2.33;100.00;99914.87;104686;1287;22558;-29
2023/01/06 03:35:43;;;;;;;4.10;1.90;;;;;;;2.25;100.00;99923.02;104562;1294;24314;-29
2023/01/06 03:38:33;;;;;;;7.80;1.70;;;;;;;2.21;100.00;99923.52;104570;1291;22829;-33
2023/01/06 03:41:04;;;;;;;5.20;2.00;;;;;;;2.25;100.00;99931.13;104754;1304;24315;-33
2023/01/06 03:43:43;;;;;;;1.70;1.00;;;;;;;2.29;100.00;99935.92;104640;1294;22570;-31
2023/01/06 03:46:35;;;;;;;9.60;2.40;;;;;;;2.30;100.00;99932.46;104637;1294;24337;-30
2023/01/06 03:49:07;;;;;;;3.90;1.30;;;;;;;2.26;100.00;99930.31;104731;1294;22659;-35
2023/01/06 03:51:51;;;;;;;4.70;1.70;;;;;;;2.18;100.00;99925.72;104646;1304;23159;-30
2023/01/06 03:54:41;;;;;;;4.30;2.80;;;;;;;2.12;100.00;99926.07;104681;1281;25263;-34
2023/01/06 03:57:12;;;;;;;2.80;2.10;;;;;;;2.11;100.00;99922.76;104591;1294;24322;-30
2023/01/06 03:59:49;;;;;;;3.90;3.40;;;;;;;2.14;100.00;99925.17;104575;1294;22618;-29
2023/01/06 04:02:18;;;;;;;1.90;1.10;;;;;;;2.31;100.00;99924.63;104603;1304;22656;-28
2023/01/06 04:04:43;;;;;;;3.00;1.30;;;;;;;2.35;100.00;99926.72;104717;1293;23171;-30
2023/01/06 04:07:10;;;;;;;2.10;1.40;;;;;;;2.17;100.00;99921.00;104557;1294;22773;-33
2023/01/06 04:09:36;;;;;;;6.50;1.90;;;;;;;2.17;100.00;99921.08;104651;1290;22929;-32
2023/01/06 04:14:31;;;;;;;2.30;0.80;;;;;;;2.18;100.00;99919.20;104646;1291;23039;-34
2023/01/06 04:16:57;;;;;;;2.00;1.60;;;;;;;2.14;100.00;99919.91;104444;1290;22674;-34
2023/01/06 04:19:23;;;;;;;2.20;1.40;;;;;;;2.10;100.00;99920.59;104682;1304;24315;-30
2023/01/06 04:21:49;;;;;;;4.20;2.30;;;;;;;2.12;100.00;99917.27;104780;1292;23144;-30
2023/01/06 04:24:14;;;;;;;3.60;1.40;;;;;;;2.10;100.00;99911.70;104621;1294;23037;-30
2023/01/06 04:26:40;;;;;;;3.30;2.00;;;;;;;2.08;100.00;99914.02;104633;1293;22991;-34
2023/01/06 04:29:06;;;;;;;6.10;1.70;;;;;;;2.08;100.00;99908.89;104662;1293;22659;-30
2023/01/06 04:31:32;;;;;;;2.60;1.60;;;;;;;2.08;100.00;99912.77;104471;1294;24576;-33
2023/01/06 04:33:58;;;;;;;2.50;1.60;;;;;;;2.08;100.00;99914.92;104343;1303;24270;-30
2023/01/06 04:36:24;;;;;;;3.70;1.80;;;;;;;2.11;100.00;99918.52;104459;1291;22680;-36
2023/01/06 05:16:40;;;;;;;7.70;3.90;;;;;;;2.02;100.00;99901.40;104573;1303;558510;-30
2023/01/06 05:19:06;;;;;;;6.10;2.00;;;;;;;1.98;100.00;99905.01;104257;1301;486198;-30
2023/01/06 05:21:32;;;;;;;8.70;2.80;;;;;;;2.00;100.00;99910.48;104640;1294;22636;-33
2023/01/06 05:23:58;;;;;;;4.30;2.10;;;;;;;1.95;100.00;99916.92;104405;1304;22861;-33
2023/01/06 05:26:24;;;;;;;3.60;2.40;;;;;;;1.99;100.00;99920.27;104663;1302;23282;-35
2023/01/06 05:28:50;;;;;;;7.70;3.10;;;;;;;1.90;100.00;99920.65;104721;1304;24267;-30
2023/01/06 05:31:16;;;;;;;4.20;2.60;;;;;;;1.90;100.00;99919.05;104647;1295;22799;-34
2023/01/06 05:33:41;;;;;;;3.90;2.60;;;;;;;1.93;100.00;99916.73;104454;1304;22678;-31
2023/01/06 05:36:09;;;;;;;3.20;1.40;;;;;;;1.95;100.00;99915.83;104714;1301;25273;-31
2023/01/06 05:38:35;;;;;;;3.40;2.10;;;;;;;1.90;100.00;99920.53;104583;1304;22631;-29
2023/01/06 05:41:01;;;;;;;7.10;1.90;;;;;;;1.92;100.00;99921.59;104803;1304;22663;-32
2023/01/06 05:43:26;;;;;;;2.30;1.40;;;;;;;1.97;100.00;99925.40;104721;1295;23173;-29
2023/01/06 05:45:53;;;;;;;4.50;2.50;;;;;;;1.98;100.00;99926.53;104688;1294;22869;-30
2023/01/06 05:48:19;;;;;;;3.70;2.40;;;;;;;1.94;100.00;99930.41;104604;1294;24317;-33
2023/01/06 05:50:45;;;;;;;3.20;2.10;;;;;;;1.98;100.00;99930.63;104495;1295;22817;-33
2023/01/06 05:53:11;;;;;;;3.90;1.90;;;;;;;2.00;100.00;99931.80;104530;1304;24506;-33
2023/01/06 05:55:37;;;;;;;2.50;1.80;;;;;;;1.99;100.00;99938.64;104704;1301;24430;-30
2023/01/06 05:58:02;;;;;;;2.50;1.60;;;;;;;1.93;100.00;99935.42;104637;1301;22663;-33
2023/01/06 06:00:28;;;;;;;2.80;2.00;;;;;;;1.90;100.00;99937.48;104639;1301;24865;-34
2023/01/06 06:02:54;;;;;;;3.80;1.90;;;;;;;1.88;100.00;99938.70;104624;1283;23157;-30
2023/01/06 06:05:20;;;;;;;3.90;2.00;;;;;;;1.87;100.00;99934.37;104342;1304;24278;-34
2023/01/06 06:07:52;;;;;;;2.80;1.60;;;;;;;1.85;100.00;99934.52;104432;1290;23172;-34
2023/01/06 06:10:18;;;;;;;2.20;1.20;;;;;;;1.85;100.00;99945.42;104785;1294;22667;-34
2023/01/06 06:12:43;;;;;;;4.60;1.30;;;;;;;1.91;100.00;99939.86;104663;1301;22763;-34
2023/01/06 06:15:09;;;;;;;2.50;2.00;;;;;;;1.95;100.00;99937.39;104649;1304;24440;-29
2023/01/06 06:17:35;;;;;;;4.10;2.10;;;;;;;1.93;100.00;99935.81;104596;1301;22653;-34
2023/01/06 06:20:02;;;;;;;3.10;1.20;;;;;;;-50.06;59.60;59963.95;103112;1298;1002699;-33
2023/01/06 06:22:28;;;;;;;2.80;1.90;;;;;;;-128.00;-1.00;-1.00;101048;1304;1005098;-33
2023/01/06 06:24:53;;;;;;;3.00;1.20;;;;;;;-128.00;-1.00;-1.00;101014;1304;1004772;-34
2023/01/06 06:27:19;;;;;;;2.70;1.90;;;;;;;-128.00;-1.00;-1.00;101022;1304;1004721;-33
2023/01/06 06:29:45;;;;;;;8.50;2.20;;;;;;;-128.00;-1.00;-1.00;101074;1304;1004631;-30
2023/01/06 06:32:11;;;;;;;1.60;1.10;;;;;;;-128.00;-1.00;-1.00;101117;1304;1004483;-34
2023/01/06 06:34:37;;;;;;;9.20;1.80;;;;;;;-128.00;-1.00;-1.00;101090;1304;1004614;-30
2023/01/06 06:37:02;;;;;;;6.00;1.30;;;;;;;-128.00;-1.00;-1.00;100981;1304;1004491;-33
2023/01/06 06:39:28;;;;;;;2.30;1.10;;;;;;;-128.00;-1.00;-1.00;100866;1304;1004034;-34
2023/01/06 06:41:54;;;;;;;1.20;0.80;;;;;;;-128.00;-1.00;-1.00;101015;1304;1004532;-34
2023/01/06 06:44:19;;;;;;;2.20;1.00;;;;;;;-128.00;-1.00;-1.00;101123;1304;1003743;-30
2023/01/06 06:46:45;;;;;;;1.60;1.30;;;;;;;-128.00;-1.00;-1.00;101051;1304;1003542;-34
2023/01/06 06:49:11;;;;;;;2.80;1.50;;;;;;;-128.00;-1.00;-1.00;100798;1304;1004680;-34
2023/01/06 06:51:36;;;;;;;0.30;0.30;;;;;;;-128.00;-1.00;-1.00;100991;1304;1005046;-34
2023/01/06 06:54:03;;;;;;;2.50;1.60;;;;;;;-128.00;-1.00;-1.00;101092;1304;1004795;-30
2023/01/06 06:56:28;;;;;;;4.70;1.30;;;;;;;-128.00;-1.00;-1.00;100995;1304;1004212;-31
2023/01/06 06:58:54;;;;;;;6.30;1.50;;;;;;;-128.00;-1.00;-1.00;101093;1304;1004530;-34
2023/01/06 07:01:20;;;;;;;4.10;1.60;;;;;;;-128.00;-1.00;-1.00;101048;1304;1004170;-28
2023/01/06 07:03:46;;;;;;;3.10;1.60;;;;;;;-128.00;-1.00;-1.00;101010;1304;1004667;-28
2023/01/06 07:06:13;;;;;;;2.40;1.40;;;;;;;-128.00;-1.00;-1.00;100936;1304;1004847;-28
2023/01/06 07:08:43;;;;;;;5.00;1.40;;;;;;;-128.00;-1.00;-1.00;101012;1304;1004093;-28
2023/01/06 07:11:09;;;;;;;3.40;1.70;;;;;;;-128.00;-1.00;-1.00;101115;1304;1005116;-31
2023/01/06 07:13:34;;;;;;;21.80;1.30;;;;;;;-128.00;-1.00;-1.00;100977;1304;1004691;-33
2023/01/06 07:16:00;;;;;;;1.70;1.30;;;;;;;-128.00;-1.00;-1.00;101085;1304;1004879;-28
2023/01/06 07:18:26;;;;;;;3.20;1.20;;;;;;;-128.00;-1.00;-1.00;101095;1304;1004467;-28
2023/01/06 07:20:52;;;;;;;2.90;1.50;;;;;;;-128.00;-1.00;-1.00;100791;1304;1005327;-32
2023/01/06 07:23:18;;;;;;;2.70;1.20;;;;;;;-128.00;-1.00;-1.00;100872;1304;1004243;-29
2023/01/06 07:25:44;;;;;;;4.70;1.70;;;;;;;-128.00;-1.00;-1.00;101097;1304;1003532;-29
2023/01/06 07:28:10;;;;;;;4.10;1.60;;;;;;;-128.00;-1.00;-1.00;100974;1304;1004581;-31
2023/01/06 07:30:36;;;;;;;1.60;1.00;;;;;;;-128.00;-1.00;-1.00;101000;1304;1004782;-28
2023/01/06 07:33:02;;;;;;;3.70;1.60;;;;;;;-128.00;-1.00;-1.00;101101;1304;1003810;-32
2023/01/06 07:35:28;;;;;;;1.20;0.60;;;;;;;-128.00;-1.00;-1.00;101004;1304;1004916;-28
2023/01/06 07:37:54;;;;;;;1.00;0.70;;;;;;;-128.00;-1.00;-1.00;101081;1304;1005574;-29
2023/01/06 07:40:20;;;;;;;1.70;1.00;;;;;;;-128.00;-1.00;-1.00;101013;1304;1004984;-29
2023/01/06 07:42:46;;;;;;;2.30;1.20;;;;;;;-128.00;-1.00;-1.00;101038;1304;1004453;-30
2023/01/06 07:45:12;;;;;;;1.80;1.30;;;;;;;-128.00;-1.00;-1.00;100954;1304;1004672;-30
2023/01/06 07:47:38;;;;;;;2.50;2.00;;;;;;;-128.00;-1.00;-1.00;100961;1304;1005624;-34
2023/01/06 07:50:04;;;;;;;5.00;1.70;;;;;;;-128.00;-1.00;-1.00;101025;1304;1004361;-30
2023/01/06 07:52:30;;;;;;;3.70;1.80;;;;;;;-128.00;-1.00;-1.00;101062;1304;1005109;-33
2023/01/06 07:54:58;;;;;;;4.40;2.30;;;;;;;-128.00;-1.00;-1.00;100842;1304;1004407;-30
2023/01/06 07:57:25;;;;;;;2.80;1.10;;;;;;;-128.00;-1.00;-1.00;100838;1304;1004876;-30
2023/01/06 07:59:51;;;;;;;2.00;1.10;;;;;;;-128.00;-1.00;-1.00;100470;1304;1005363;-34
2023/01/06 08:02:17;;;;;;;2.50;1.40;;;;;;;-128.00;-1.00;-1.00;101051;1304;1004596;-33
2023/01/06 08:04:43;;;;;;;2.50;1.60;;;;;;;-128.00;-1.00;-1.00;101111;1304;1004405;-34
2023/01/06 08:07:09;;;;;;;3.20;1.50;;;;;;;-128.00;-1.00;-1.00;101004;1304;1004380;-30
2023/01/06 08:09:35;;;;;;;3.20;1.40;;;;;;;-128.00;-1.00;-1.00;100804;1304;1003921;-34
2023/01/06 08:12:01;;;;;;;5.20;1.80;;;;;;;-128.00;-1.00;-1.00;101046;1304;1003686;-34
2023/01/06 08:14:26;;;;;;;2.20;1.50;;;;;;;-128.00;-1.00;-1.00;101087;1304;1004038;-30
2023/01/06 08:16:53;;;;;;;2.10;1.40;;;;;;;-128.00;-1.00;-1.00;100971;1304;1004181;-29
2023/01/06 08:19:19;;;;;;;2.90;2.20;;;;;;;-128.00;-1.00;-1.00;101040;1304;1004588;-34
2023/01/06 08:21:44;;;;;;;3.00;2.00;;;;;;;-128.00;-1.00;-1.00;100806;1304;1003607;-34
2023/01/06 08:24:10;;;;;;;3.40;1.90;;;;;;;-128.00;-1.00;-1.00;101003;1304;1003862;-30
2023/01/06 08:26:36;;;;;;;4.20;2.10;;;;;;;-128.00;-1.00;-1.00;100922;1304;1004483;-30
2023/01/06 08:29:01;;;;;;;4.30;2.40;;;;;;;-128.00;-1.00;-1.00;100922;1304;1004950;-36
2023/01/06 08:31:27;;;;;;;2.70;1.60;;;;;;;-128.00;-1.00;-1.00;101001;1304;1004191;-30
2023/01/06 08:33:53;;;;;;;1.80;1.30;;;;;;;-128.00;-1.00;-1.00;100823;1304;1005011;-30
2023/01/06 08:36:20;;;;;;;1.90;1.40;;;;;;;-128.00;-1.00;-1.00;101057;1304;1004299;-33
2023/01/06 08:38:46;;;;;;;1.90;1.60;;;;;;;-128.00;-1.00;-1.00;100961;1304;1004224;-34
2023/01/06 08:41:12;;;;;;;3.90;1.60;;;;;;;-128.00;-1.00;-1.00;100979;1304;1005125;-30
2023/01/06 08:43:39;;;;;;;3.50;2.20;;;;;;;-128.00;-1.00;-1.00;100966;1304;1004654;-30
2023/01/06 08:46:06;;;;;;;2.60;1.60;;;;;;;-128.00;-1.00;-1.00;101054;1304;1003974;-30
2023/01/06 08:48:32;;;;;;;2.50;1.80;;;;;;;-128.00;-1.00;-1.00;100961;1304;1004608;-33
2023/01/06 08:51:02;;;;;;;4.40;1.60;;;;;;;-128.00;-1.00;-1.00;101004;1304;1005200;-31
2023/01/06 08:53:28;;;;;;;2.30;1.60;;;;;;;-128.00;-1.00;-1.00;100861;1304;1003991;-30
2023/01/06 08:55:54;;;;;;;2.90;1.30;;;;;;;-128.00;-1.00;-1.00;100967;1304;1003533;-36
2023/01/06 08:58:21;;;;;;;2.20;1.10;;;;;;;-128.00;-1.00;-1.00;101096;1304;1004662;-30
2023/01/06 09:00:46;;;;;;;4.00;1.50;;;;;;;-128.00;-1.00;-1.00;101044;1304;1004671;-34
2023/01/06 09:03:12;;;;;;;4.20;1.40;;;;;;;-128.00;-1.00;-1.00;100984;1304;1005102;-34
2023/01/06 09:05:38;;;;;;;3.80;1.90;;;;;;;-128.00;-1.00;-1.00;100982;1304;1004481;-34
2023/01/06 09:08:04;;;;;;;4.10;1.80;;;;;;;-128.00;-1.00;-1.00;100989;1304;1004729;-34
2023/01/06 09:10:30;;;;;;;4.30;2.70;;;;;;;-128.00;-1.00;-1.00;100829;1304;1004849;-34
2023/01/06 09:12:56;;;;;;;5.30;2.30;;;;;;;-128.00;-1.00;-1.00;101014;1304;1004805;-30
2023/01/06 09:15:22;;;;;;;14.90;2.60;;;;;;;-128.00;-1.00;-1.00;100951;1304;1004829;-34
2023/01/06 09:17:47;;;;;;;1.60;1.10;;;;;;;-128.00;-1.00;-1.00;100854;1304;1004235;-30
2023/01/06 09:20:13;;;;;;;6.60;1.50;;;;;;;-128.00;-1.00;-1.00;100927;1304;1005423;-30
2023/01/06 09:22:39;;;;;;;3.00;1.00;;;;;;;-128.00;-1.00;-1.00;101024;1304;1004284;-34
2023/01/06 09:25:05;;;;;;;1.70;1.20;;;;;;;-128.00;-1.00;-1.00;101010;1304;1003937;-30
2023/01/06 09:27:31;;;;;;;2.70;1.30;;;;;;;-128.00;-1.00;-1.00;101033;1304;1003747;-31
2023/01/06 09:29:56;;;;;;;2.30;1.60;;;;;;;-128.00;-1.00;-1.00;100961;1304;1003816;-34
2023/01/06 09:32:22;;;;;;;3.60;1.60;;;;;;;-128.00;-1.00;-1.00;101159;1304;1004719;-35
2023/01/06 09:34:48;;;;;;;5.20;1.40;;;;;;;-128.00;-1.00;-1.00;100974;1304;1004716;-31
2023/01/06 09:37:14;;;;;;;4.10;2.30;;;;;;;-128.00;-1.00;-1.00;101013;1304;1003391;-34
2023/01/06 09:39:40;;;;;;;6.30;2.10;;;;;;;-128.00;-1.00;-1.00;101054;1304;1004778;-34
2023/01/06 09:42:25;;;;;;;4.40;1.40;;;;;;;-128.00;-1.00;-1.00;101041;1304;1004731;-35
2023/01/06 09:44:55;;;;;;;5.20;1.70;;;;;;;-128.00;-1.00;-1.00;100857;1304;1004545;-30
2023/01/06 09:47:28;;;;;;;28.70;9.70;;;;;;;-128.00;-1.00;-1.00;100869;1304;1004624;-34
2023/01/06 09:50:02;;;;;;;161.40;62.20;;;;;;;-128.00;-1.00;-1.00;101091;1304;1004215;-34
2023/01/06 09:52:35;;;;;;;89.70;44.00;;;;;;;-128.00;-1.00;-1.00;100855;1304;1004683;-37
2023/01/06 09:55:17;;;;;;;478.90;200.70;;;;;;;-128.00;-1.00;-1.00;100950;1304;1004661;-32
2023/01/06 09:57:57;;;;;;;87.30;34.20;;;;;;;-128.00;-1.00;-1.00;101022;1304;1004096;-35
2023/01/06 10:00:39;;;;;;;274.50;107.70;;;;;;;-128.00;-1.00;-1.00;100955;1300;1004352;-35
2023/01/06 10:03:07;;;;;;;109.90;46.50;;;;;;;-128.00;-1.00;-1.00;101051;1304;1004582;-35
2023/01/06 10:05:51;;;;;;;323.70;120.20;;;;;;;-128.00;-1.00;-1.00;101035;1304;1004339;-35
2023/01/06 10:08:34;;;;;;;601.80;293.80;;;;;;;-128.00;-1.00;-1.00;100845;1304;1003841;-31
2023/01/06 10:11:23;;;;;;;199.50;66.60;;;;;;;-128.00;-1.00;-1.00;101089;1304;1004730;-31
2023/01/06 10:14:04;;;;;;;44.40;15.10;;;;;;;-128.00;-1.00;-1.00;100967;1304;1005454;-31
2023/01/06 10:16:53;;;;;;;34.10;6.70;;;;;;;-128.00;-1.00;-1.00;101036;1300;1004409;-28
2023/01/06 10:19:41;;;;;;;9.10;3.20;;;;;;;-128.00;-1.00;-1.00;100989;1304;1005251;-32
2023/01/06 10:22:13;;;;;;;11.20;4.40;;;;;;;-128.00;-1.00;-1.00;100817;1298;1005675;-33
2023/01/06 10:24:59;;;;;;;27.40;18.80;;;;;;;-128.00;-1.00;-1.00;100902;1304;1003855;-31
2023/01/06 10:27:41;;;;;;;75.60;25.10;;;;;;;-128.00;-1.00;-1.00;101059;1304;1004167;-30
2023/01/06 10:30:19;;;;;;;72.00;14.80;;;;;;;-128.00;-1.00;-1.00;101034;1304;1004287;-31
2023/01/06 10:32:46;;;;;;;3.70;2.20;;;;;;;-128.00;-1.00;-1.00;101041;1304;1004813;-31
2023/01/06 10:35:12;;;;;;;17.50;2.00;;;;;;;-128.00;-1.00;-1.00;101003;1304;1004559;-31
2023/01/06 10:37:39;;;;;;;8.10;2.80;;;;;;;-128.00;-1.00;-1.00;100575;1304;1004962;-34
2023/01/06 10:40:20;;;;;;;12.50;3.30;;;;;;;-128.00;-1.00;-1.00;100762;1304;1004349;-31
2023/01/06 10:45:23;;;;;;;102.70;37.50;;;;;;;-128.00;-1.00;-1.00;101070;1297;1004361;-35
2023/01/06 10:47:48;;;;;;;53.60;29.50;;;;;;;-128.00;-1.00;-1.00;101045;1304;1004152;-31
2023/01/06 10:50:15;;;;;;;62.80;24.40;;;;;;;-128.00;-1.00;-1.00;100851;1303;1004044;-34
2023/01/06 10:52:42;;;;;;;68.80;14.70;;;;;;;-128.00;-1.00;-1.00;101035;1304;1005667;-35
2023/01/06 10:55:21;;;;;;;107.30;26.30;;;;;;;-128.00;-1.00;-1.00;100588;1304;1003890;-34
2023/01/06 10:57:47;;;;;;;68.20;18.90;;;;;;;-128.00;-1.00;-1.00;101015;1304;1004641;-31
2023/01/06 11:00:25;;;;;;;36.00;7.90;;;;;;;-128.00;-1.00;-1.00;101044;1304;1003998;-35
2023/01/06 11:02:54;;;;;;;31.80;8.00;;;;;;;-128.00;-1.00;-1.00;101055;1304;1004973;-35
2023/01/06 11:05:24;;;;;;;22.50;6.70;;;;;;;-128.00;-1.00;-1.00;101102;1304;1005212;-31
2023/01/06 11:46:00;;;;;;;23.40;8.00;;;;;;;6.19;89.51;99777.17;104471;1296;557672;-35
2023/01/06 11:48:29;;;;;;;25.40;9.20;;;;;;;6.01;89.50;99765.44;104190;1294;423768;-34
2023/01/06 11:50:57;;;;;;;16.30;5.90;;;;;;;5.81;90.24;99751.05;104881;1301;22624;-34
2023/01/06 11:53:23;;;;;;;22.20;9.80;;;;;;;5.71;90.79;99746.94;104753;1302;22558;-34
2023/01/06 11:56:02;;;;;;;21.50;12.10;;;;;;;5.69;91.46;99743.23;104911;1290;22562;-34
2023/01/06 11:58:52;;;;;;;160.20;74.10;;;;;;;5.65;90.97;99735.67;104782;1287;22564;-36
2023/01/06 12:01:36;;;;;;;44.20;14.70;;;;;;;5.62;91.86;99723.16;104670;1300;22630;-34
2023/01/06 12:04:10;;;;;;;43.90;8.80;;;;;;;5.63;92.22;99718.99;104880;1291;22675;-33
2023/01/06 12:06:41;;;;;;;31.50;7.60;;;;;;;5.61;92.31;99715.77;104882;1287;26660;-30
2023/01/06 12:09:23;;;;;;;10.40;5.00;;;;;;;5.56;91.59;99710.07;104894;1302;22785;-30
2023/01/06 12:11:51;;;;;;;22.50;7.00;;;;;;;5.48;92.10;99708.95;104784;1302;23042;-33
2023/01/06 12:14:26;;;;;;;18.90;6.70;;;;;;;5.45;92.28;99699.30;104760;1291;23169;-34
2023/01/06 12:17:04;;;;;;;21.10;8.50;;;;;;;5.45;92.35;99695.30;104664;1303;22581;-30
2023/01/06 12:19:47;;;;;;;17.20;7.50;;;;;;;5.41;92.62;99688.92;104702;1302;24205;-35
2023/01/06 12:22:26;;;;;;;13.20;10.00;;;;;;;5.37;92.46;99685.79;104701;1291;22670;-34
2023/01/06 12:24:52;;;;;;;100.40;50.20;;;;;;;5.41;92.93;99689.80;104711;1291;25245;-34
2023/01/06 12:27:23;;;;;;;84.30;31.20;;;;;;;5.45;93.50;99687.45;104894;1291;23179;-31
2023/01/06 12:29:49;;;;;;;24.30;10.90;;;;;;;5.44;93.46;99684.15;104789;1290;23168;-31
2023/01/06 12:32:17;;;;;;;28.20;9.60;;;;;;;5.46;93.65;99689.84;104623;1300;22802;-34
2023/01/06 12:34:47;;;;;;;19.90;7.40;;;;;;;5.53;94.13;99689.96;104770;1291;22618;-34
2023/01/06 12:37:27;;;;;;;31.80;7.20;;;;;;;5.63;94.45;99680.40;104882;1302;22615;-33
2023/01/06 12:40:00;;;;;;;22.30;8.70;;;;;;;5.72;93.90;99674.55;104913;1287;25305;-34
2023/01/06 12:42:49;;;;;;;13.70;6.60;;;;;;;5.68;94.07;99665.94;104640;1287;22665;-30
2023/01/06 12:45:23;;;;;;;9.10;5.80;;;;;;;5.75;93.73;99661.02;104599;1292;24306;-30
2023/01/06 12:47:51;;;;;;;14.40;6.90;;;;;;;5.74;93.20;99646.67;104804;1301;22657;-33
2023/01/06 12:50:32;;;;;;;9.20;5.90;;;;;;;5.65;93.31;99651.95;104710;1303;24212;-34
2023/01/06 12:53:00;;;;;;;36.20;18.30;;;;;;;5.62;93.65;99648.42;104705;1291;23034;-31
2023/01/06 12:55:34;;;;;;;75.70;22.30;;;;;;;5.56;93.66;99635.31;104868;1291;22667;-34